Tiempo atmosférico en la estación meteorológica de Monesterio, Badajoz (750 m.)



Fecha
DESCASC
Temp. máxima en grados centígrados (hora)
DESCASC
Temp. mínima en grados centígrados (hora)
DESCASC
Temp. media en grados centígrados
DESCASC
Racha de viento máxima en m/sg (hora)
DESCASC
Velocidad máxima media en intervalos de 10 minutos(hora)
DESCASC
Precipitaciones diarias en mm
DESCASC
Precipitaciones de 00:00 a 06:00 en mm
DESCASC
Precipitaciones de 06:00 a 12:00 en mm
DESCASC
Precipitaciones de 12:00 a 18:00 en mm
DESCASC
Precipitaciones de 18:00 a 24:00 en mm
DESCASC
22-11-2020 15.4 (15:00) 7.8 (07:30) 11.6 7.78 (11:10) 5.28 (11:10) 0 0 0 0 0
21-11-2020 18 (14:50) 9 (04:00) 13.5 7.5 (10:50) 5 (10:50) 0 0 0 0 0
20-11-2020 18.8 (15:10) 11.7 (20:00) 15.2 6.39 (15:40) 3.89 (15:40) 0 0 0 0 0
19-11-2020 21.1 (12:40) 12.8 (00:00) 17 9.44 (16:50) 5.56 (14:50) 0 0 0 0 0
18-11-2020 23.1 (15:50) 11.7 (00:00) 17.4 5 (00:40) 3.61 (00:20) 0 0 0 0 0
17-11-2020 20.6 (15:10) 10.1 (00:00) 15.4 6.67 (14:20) 3.89 (22:30) 0.2 0.2 0 0 0
16-11-2020 20.1 (14:30) 12.4 (00:00) 16.3 6.39 (00:30) 3.89 (00:10) 0 0 0 0 0
15-11-2020 19.5 (16:20) 13.2 (00:00) 16.3 10 (12:10) 5.83 (13:10) 0.2 0.2 0 0 0
14-11-2020 16.7 (17:00) 12.5 (00:00) 14.6 10.28 (08:30) 5.83 (08:20) 2 0.6 1.2 0 0.2
13-11-2020 15.5 (16:00) 8.1 (00:00) 11.8 8.33 (23:50) 5 (23:50) 0 0 0 0 0
12-11-2020 16.2 (13:30) 9.3 (00:00) 12.8 7.78 (13:20) 4.72 (13:20) 0 0 0 0 0
11-11-2020 16.9 (15:00) 8.7 (00:00) 12.8 8.89 (12:20) 5 (05:20) 0 0 0 0 0
10-11-2020 16.4 (15:40) 7.8 (00:00) 12.1 5.83 (14:50) 3.33 (14:00) 0.4 0.2 0.2 0 0
09-11-2020 15.7 (15:40) 9.5 (00:00) 12.6 8.61 (00:10) 5.28 (00:10) 6.4 6.4 0 0 0
08-11-2020 15.9 (15:20) 10.6 (00:00) 13.3 9.72 (23:30) 5 (23:59) 2 0 0 0 2
07-11-2020 15 (14:40) 9.6 (00:00) 12.3 11.39 (00:10) 5.83 (00:30) 3.8 3.4 0.4 0 0
06-11-2020 18 (13:50) 12.2 (00:00) 15.1 14.72 (16:30) 7.22 (16:00) 10.8 0 0 0 10.8
05-11-2020 14.1 (15:50) 9.7 (00:00) 11.9 12.78 (08:20) 6.67 (08:20) 23.2 15 8.2 0 0
04-11-2020 13.7 (15:30) 10.1 (00:00) 11.9 8.89 (16:00) 4.72 (16:00) 11.2 0 0 8.8 2.4
03-11-2020 14.9 (17:00) 10.7 (00:00) 12.8 5 (02:30) 2.5 (02:30) 3.4 0 3 0.4 0
02-11-2020 22.5 (14:40) 10 (00:00) 16.3 4.44 (20:40) 2.5 (21:10) 0 0 0 0 0
01-11-2020 20.7 (15:40) 10.9 (00:00) 15.8 4.17 (00:10) 2.78 (00:40) 0 0 0 0 0
31-10-2020 22.6 (13:50) 10.8 (00:00) 16.7 5.28 (14:20) 2.78 (14:20) 0 0 0 0 0
30-10-2020 23 (15:30) 13 (00:00) 18 10 (11:40) 5.83 (12:10) 0 0 0 0 0
29-10-2020 22.3 (15:10) 10 (00:00) 16.1 6.39 (14:20) 3.89 (16:10) 0.2 0 0.2 0 0
28-10-2020 17.8 (16:20) 8.1 (00:00) 12.9 5.56 (15:20) 3.33 (15:10) 0 0 0 0 0
27-10-2020 14.4 (15:50) 5.6 (00:00) 10 5.56 (15:10) 2.78 (17:20) 0 0 0 0 0
26-10-2020 12.5 (16:30) 6.3 (00:00) 9.4 10.83 (00:10) 5.56 (05:20) 0 0 0 0 0

Gráficas

Temp. máximas Temp. mínimas Temp. medias Precipitaciones Rachas de viento máximas Velocidades máximas media en intervalos de 10 minutos

Datos horarios

Fecha y hora oficial Temperatura (ºC) Velocidad del viento (km/h) Dirección del viento Racha (km/h) Dirección de racha Precipitación (mm) Presión (hPa) Tendencia (hPa) Humedad (%)
2020-11-24 23:00:00 9.7 6 Sudoeste 13 Sudoeste 0 -- -- 93
2020-11-24 22:00:00 10.1 5 Sudoeste 10 Sudoeste 0 -- -- 91
2020-11-24 21:00:00 9.8 4 Sur 14 Sur 0 -- -- 92
2020-11-24 20:00:00 10.1 3 Sur 9 Sur 0 -- -- 88
2020-11-24 19:00:00 10.4 0 Calma 6 Sur 0 -- -- 84
2020-11-24 18:00:00 10.8 4 Sudeste 11 Sur 0 -- -- 82
2020-11-24 17:00:00 11.7 4 Sur 13 Sudeste 0 -- -- 76
2020-11-24 16:00:00 12 9 Sur 18 Sur 0 -- -- 71
2020-11-24 15:00:00 11.9 12 Sudoeste 20 Sur 0 -- -- 69
2020-11-24 14:00:00 12 11 Sudoeste 25 Sudoeste 0 -- -- 70
2020-11-24 13:00:00 13.3 10 Sur 24 Sur 0 -- -- 68
2020-11-24 12:00:00 12.4 11 Sudoeste -- -- -- -- -- 69
2020-11-24 11:00:00 -- -- -- -- -- -- -- -- --
2020-11-24 10:00:00 10.6 4 Sudoeste 9 Sudoeste 0 -- -- 72
2020-11-24 09:00:00 7.1 5 Oeste 7 Oeste 0 -- -- 89
2020-11-24 08:00:00 5.7 0 Calma -- -- 0 -- -- 90
2020-11-24 07:00:00 5.9 0 Calma -- -- 0 -- -- 88
2020-11-24 06:00:00 5.9 0 Calma -- -- 0 -- -- 88
2020-11-24 05:00:00 5 0 Calma 7 Sudoeste 0 -- -- 88
2020-11-24 04:00:00 5.7 5 Sudoeste 7 Sudoeste 0 -- -- 81
2020-11-24 03:00:00 6.8 3 Sudoeste 7 Sur 0 -- -- 74
2020-11-24 02:00:00 7.7 5 Sur 13 Sur 0 -- -- 70
2020-11-24 01:00:00 8.5 10 Sur 15 Sur 0 -- -- 70
2020-11-24 00:00:00 8 8 Sur 12 Sur 0 -- -- 76
2020-11-23 23:00:00 6.9 5 Sur 9 Sur 0 -- -- 79
2020-11-23 22:00:00 8.4 5 Sur 13 Sudeste 0 -- -- 73
2020-11-23 21:00:00 8.5 7 Sur 12 Sur 0 -- -- 75
2020-11-23 20:00:00 8.9 8 Sudoeste 13 Sur 0 -- -- 71
2020-11-23 19:00:00 9.7 6 Sur 12 Sudeste 0 -- -- 72
2020-11-23 18:00:00 11.2 6 Sur 12 Sudeste 0 -- -- 70
2020-11-23 17:00:00 14.3 7 Sur 12 Sudeste 0 -- -- 58
2020-11-23 16:00:00 15.3 6 Sudeste 14 Este 0 -- -- 54
2020-11-23 15:00:00 14.9 9 Sudeste 17 Sudeste 0 -- -- 56
2020-11-23 14:00:00 15 8 Sudeste 17 Este 0 -- -- 53
2020-11-23 13:00:00 13.6 10 Sudeste 18 Sudeste 0 -- -- 63
2020-11-23 12:00:00 12.6 11 Sudeste 20 Sudeste 0 -- -- 64
2020-11-23 11:00:00 11.6 10 Sudeste 20 Sudeste 0 -- -- 68
2020-11-23 10:00:00 9.8 10 Sudeste 16 Sudeste 0 -- -- 75
2020-11-23 09:00:00 7.8 7 Sur 15 Sudeste 0 -- -- 81
2020-11-23 08:00:00 7.4 8 Sudeste 16 Sudeste 0 -- -- 83
2020-11-23 07:00:00 7.9 8 Sudeste 14 Sudeste 0 -- -- 85
2020-11-23 06:00:00 7.9 7 Sudeste 15 Este 0 -- -- 83
2020-11-23 05:00:00 8 6 Sudeste 8 Sudeste 0 -- -- 80
2020-11-23 04:00:00 7.8 4 Sur 7 Sudeste 0 -- -- 82
2020-11-23 03:00:00 7.1 3 Sudeste 5 Sur 0 -- -- 83
2020-11-23 02:00:00 7.3 3 Sudeste 6 Sudeste 0 -- -- 78
2020-11-23 01:00:00 7 3 Sur 5 Sudeste 0 -- -- 81
2020-11-23 00:00:00 8.1 4 Sudeste 8 Sur 0 -- -- 80
2020-11-22 23:00:00 8.7 5 Sur 9 Sudeste 0 -- -- 80
2020-11-22 22:00:00 9.1 6 Sur 10 Sudeste 0 -- -- 77
2020-11-22 21:00:00 9.2 6 Sur 9 Sur 0 -- -- 76
2020-11-22 20:00:00 9.4 5 Sur 9 Sur 0 -- -- 75
2020-11-22 19:00:00 9.9 6 Sudeste 8 Sur 0 -- -- 74
2020-11-22 18:00:00 12.3 5 Sudeste 12 Sudeste 0 -- -- 65
2020-11-22 17:00:00 15.1 7 Este 14 Sudeste 0 -- -- 56
2020-11-22 16:00:00 15.3 10 Sudeste 18 Sudeste 0 -- -- 56
2020-11-22 15:00:00 15.4 10 Sudeste 21 Sudeste 0 -- -- 54
2020-11-22 14:00:00 14.8 10 Sudeste 22 Este 0 -- -- 59
2020-11-22 13:00:00 13.9 13 Este 26 Sudeste 0 -- -- 62
2020-11-22 12:00:00 12.8 14 Sudeste 28 Sudeste 0 -- -- 67
2020-11-22 11:00:00 11.5 17 Sudeste 28 Sudeste 0 -- -- 73
2020-11-22 10:00:00 10 14 Sudeste 28 Sudeste 0 -- -- 81
2020-11-22 09:00:00 8.4 10 Sudeste 24 Sudeste 0 -- -- 90
2020-11-22 08:00:00 7.8 12 Sudeste 22 Sudeste 0 -- -- 91
2020-11-22 07:00:00 8 14 Sudeste 27 Sudeste 0 -- -- 91
2020-11-22 06:00:00 8.2 15 Sudeste 25 Sudeste 0 -- -- 91
2020-11-22 05:00:00 8.4 12 Sudeste 22 Sudeste 0 -- -- 90
2020-11-22 04:00:00 8.8 13 Sudeste 23 Sudeste 0 -- -- 90
2020-11-22 03:00:00 8.9 12 Sudeste 19 Sudeste 0 -- -- 90
2020-11-22 02:00:00 9.6 10 Sudeste 26 Sudeste 0 -- -- 86
2020-11-22 01:00:00 9.6 10 Sudeste 21 Sudeste 0 -- -- 85
2020-11-22 00:00:00 9.8 8 Sudeste 18 Sudeste 0 -- -- 83
2020-11-21 23:00:00 9.9 9 Sudeste 15 Sur 0 -- -- 81
2020-11-21 22:00:00 10.4 5 Sudeste 15 Sur 0 -- -- 79
2020-11-21 21:00:00 11.2 13 Sur 21 Sudeste 0 -- -- 80
2020-11-21 20:00:00 11.5 10 Sudeste 17 Sudeste 0 -- -- 83
2020-11-21 19:00:00 12.2 12 Sudeste 19 Sudeste 0 -- -- 82
2020-11-21 18:00:00 13.8 10 Sur 17 Sur 0 -- -- 79
2020-11-21 17:00:00 16.5 8 Sudeste 16 Sudeste 0 -- -- 68
2020-11-21 16:00:00 17.6 8 Sudeste 17 Este 0 -- -- 62
2020-11-21 15:00:00 17.9 9 Sudeste 16 Sudeste 0 -- -- 58
2020-11-21 14:00:00 17.3 10 Sudeste 19 Sudeste 0 -- -- 59
2020-11-21 13:00:00 16.3 12 Sudeste 21 Sudeste 0 -- -- 66
2020-11-21 12:00:00 15.1 13 Sudeste 27 Sudeste 0 -- -- 69
2020-11-21 11:00:00 13.5 16 Sudeste 27 Sudeste 0 -- -- 76
2020-11-21 10:00:00 12 10 Sudeste 21 Sudeste 0 -- -- 73
2020-11-21 09:00:00 10.1 8 Sur 23 Sur 0 -- -- 76
2020-11-21 08:00:00 9 11 Sur 18 Sur 0 -- -- 64
2020-11-21 07:00:00 9.7 5 Sur 24 Sudeste 0 -- -- 49
2020-11-21 06:00:00 10.6 11 Sudeste 21 Sudeste 0 -- -- 46
2020-11-21 05:00:00 10.1 6 Sudeste 17 Sudeste 0 -- -- 48
2020-11-21 04:00:00 9 5 Sudeste 8 Sudeste 0 -- -- 51
2020-11-21 03:00:00 9.6 7 Sudeste 12 Nordeste 0 -- -- 48
2020-11-21 02:00:00 11.4 4 Nordeste 14 Este 0 -- -- 42
2020-11-21 01:00:00 12.6 9 Este 17 Sudeste 0 -- -- 38
2020-11-21 00:00:00 12.5 6 Este 17 Este 0 -- -- 37
2020-11-20 23:00:00 13.1 10 Sudeste 20 Nordeste 0 -- -- 36
2020-11-20 22:00:00 12.8 4 Sudeste 16 Sudeste 0 -- -- 36
2020-11-20 21:00:00 12.6 7 Sudeste 12 Este 0 -- -- 37
2020-11-20 20:00:00 11.7 0 Calma 11 Nordeste 0 -- -- 49
2020-11-20 19:00:00 13.2 5 Nordeste 11 Nordeste 0 -- -- 46
2020-11-20 18:00:00 15.3 8 Nordeste 23 Nordeste 0 -- -- 43
2020-11-20 17:00:00 17.7 10 Nordeste 21 Nordeste 0 -- -- 41
2020-11-20 16:00:00 18.4 12 Nordeste 23 Nordeste 0 -- -- 42
2020-11-20 15:00:00 18.7 11 Nordeste 22 Nordeste 0 -- -- 38
2020-11-20 14:00:00 18.2 10 Nordeste 20 Este 0 -- -- 52
2020-11-20 13:00:00 17.6 7 Este 19 Nordeste 0 -- -- 62
2020-11-20 12:00:00 16.5 9 Nordeste 18 Nordeste 0 -- -- 64
2020-11-20 11:00:00 15.1 11 Nordeste 17 Nordeste 0 -- -- 69
2020-11-20 10:00:00 14.5 10 Este 17 Nordeste 0 -- -- 68
2020-11-20 09:00:00 13.1 5 Este 18 Este 0 -- -- 70
2020-11-20 08:00:00 12 3 Nordeste 18 Este 0 -- -- 75
2020-11-20 07:00:00 11.9 4 Este 12 Este 0 -- -- 75
2020-11-20 06:00:00 12.5 4 Nordeste 15 Nordeste 0 -- -- 74
2020-11-20 05:00:00 13.4 4 Nordeste 23 Este 0 -- -- 71
2020-11-20 04:00:00 13.3 9 Este 17 Nordeste 0 -- -- 72
2020-11-20 03:00:00 12.9 4 Este 12 Este 0 -- -- 72
2020-11-20 02:00:00 13.5 4 Sudeste 10 Este 0 -- -- 69
2020-11-20 01:00:00 13.8 4 Sudeste 9 Este 0 -- -- 72
2020-11-20 00:00:00 13.6 0 Calma 10 Norte 0 -- -- 74
2020-11-19 23:00:00 14.1 2 Noroeste 10 Norte 0 -- -- 72
2020-11-19 22:00:00 14 4 Noroeste 10 Norte 0 -- -- 76
2020-11-19 21:00:00 14.3 4 Noroeste 12 Norte 0 -- -- 77
2020-11-19 20:00:00 15.2 6 Norte 16 Norte 0 -- -- 73
2020-11-19 19:00:00 16.3 6 Norte 15 Nordeste 0 -- -- 65
2020-11-19 18:00:00 18.2 7 Nordeste 24 Este 0 -- -- 54
2020-11-19 17:00:00 19.8 13 Este 34 Nordeste 0 -- -- 49
2020-11-19 16:00:00 20.7 15 Nordeste 30 Nordeste 0 -- -- 45
2020-11-19 15:00:00 20.8 18 Nordeste 32 Nordeste 0 -- -- 46
2020-11-19 14:00:00 21 15 Nordeste 31 Nordeste 0 -- -- 44
2020-11-19 13:00:00 21.1 14 Este 26 Este 0 -- -- 43
2020-11-19 12:00:00 20.1 8 Nordeste 15 Nordeste 0 -- -- 48
2020-11-19 11:00:00 18.9 5 Nordeste 14 Nordeste 0 -- -- 53
2020-11-19 10:00:00 17 6 Nordeste 12 Nordeste 0 -- -- 55
2020-11-19 09:00:00 14.8 3 Este 10 Nordeste 0 -- -- 63
2020-11-19 08:00:00 14.4 3 Este 11 Este 0 -- -- 65
2020-11-19 07:00:00 13.8 3 Sudeste 6 Este 0 -- -- 65
2020-11-19 06:00:00 14.5 3 Este 9 Este 0 -- -- 58
2020-11-19 05:00:00 14.4 2 Nordeste 7 Este 0 -- -- 66
2020-11-19 04:00:00 14.7 3 Este 12 Este 0 -- -- 68
2020-11-19 03:00:00 13.7 0 Calma 5 Este 0 -- -- 73
2020-11-19 02:00:00 13.1 0 Calma 6 Nordeste 0 -- -- 77
2020-11-19 01:00:00 14.1 0 Calma -- -- 0 -- -- 73
2020-11-19 00:00:00 14.1 0 Calma -- -- 0 -- -- 75
2020-11-18 23:00:00 14.1 0 Calma 8 Sudeste 0 -- -- 77
2020-11-18 22:00:00 14.3 0 Calma 5 Sudoeste 0 -- -- 81
2020-11-18 21:00:00 15.2 3 Oeste 9 Noroeste 0 -- -- 85
2020-11-18 20:00:00 16.5 7 Oeste 14 Sudoeste 0 -- -- 79
2020-11-18 19:00:00 15.8 5 Sudoeste 7 Sudoeste 0 -- -- 74
2020-11-18 18:00:00 18.9 4 Sur 8 Sur 0 -- -- 62
2020-11-18 17:00:00 21.8 6 Sur 12 Sudeste 0 -- -- 51
2020-11-18 16:00:00 23 5 Sudeste 10 Sudeste 0 -- -- 48
2020-11-18 15:00:00 22.5 8 Sudeste 16 Sudeste 0 -- -- 46
2020-11-18 14:00:00 22 9 Sudeste 17 Sudeste 0 -- -- 49
2020-11-18 13:00:00 21.9 8 Sudeste 16 Sudeste 0 -- -- 48
2020-11-18 12:00:00 20.6 10 Sur 16 Sudeste 0 -- -- 56
2020-11-18 11:00:00 19.6 8 Sur 15 Sur 0 -- -- 52
2020-11-18 10:00:00 18.8 5 Sur 13 Sur 0 -- -- 45
2020-11-18 09:00:00 15.5 7 Sur 11 Sur 0 -- -- 50
2020-11-18 08:00:00 13 6 Sur 8 Sur 0 -- -- 59
2020-11-18 07:00:00 11.7 3 Sur 5 Sur 0 -- -- 66
2020-11-18 06:00:00 11.9 4 Sudoeste 8 Sudoeste 0 -- -- 66
2020-11-18 05:00:00 12.1 6 Sudoeste 8 Sudoeste 0 -- -- 66
2020-11-18 04:00:00 12.1 4 Sudoeste 9 Sudoeste 0 -- -- 67
2020-11-18 03:00:00 13.9 8 Sudoeste 15 Sudoeste 0 -- -- 60
2020-11-18 02:00:00 15.1 12 Sudoeste 17 Sudoeste 0 -- -- 57
2020-11-18 01:00:00 16 11 Sudoeste 18 Sudoeste 0 -- -- 54
2020-11-18 00:00:00 15.9 11 Sudoeste 18 Sudoeste 0 -- -- 53
2020-11-17 23:00:00 16.5 13 Sudoeste 18 Sudoeste 0 -- -- 53
2020-11-17 22:00:00 15.3 10 Sudoeste 14 Sudoeste 0 -- -- 60
2020-11-17 21:00:00 12.8 4 Sudoeste 9 Sur 0 -- -- 81
2020-11-17 20:00:00 14.9 5 Sur 12 Sur 0 -- -- 93
2020-11-17 19:00:00 15.6 6 Sur 17 Sur 0 -- -- 89
2020-11-17 18:00:00 17.5 10 Sur 16 Sur 0 -- -- 84
2020-11-17 17:00:00 19.6 7 Sur 18 Sudoeste 0 -- -- 68
2020-11-17 16:00:00 20.4 8 Sudeste 15 Sudeste 0 -- -- 69
2020-11-17 15:00:00 20.5 8 Sur 24 Sudeste 0 -- -- 74
2020-11-17 14:00:00 19.6 12 Sudeste 19 Sudeste 0 -- -- 80
2020-11-17 13:00:00 18.8 12 Sudeste 20 Sudeste 0 -- -- 84
2020-11-17 12:00:00 17.4 8 Sur 17 Sudeste 0 -- -- 94
2020-11-17 11:00:00 15.6 6 Sudeste 13 Sudeste 0 -- -- 100
2020-11-17 10:00:00 13.8 7 Sur 14 Sur 0 -- -- 100
2020-11-17 09:00:00 12.6 9 Sur 15 Sur 0 -- -- 99
2020-11-17 08:00:00 12.4 7 Sur 15 Sur 0 -- -- 97
2020-11-17 07:00:00 10.2 5 Sur 10 Sur 0 -- -- 73
2020-11-17 06:00:00 10.6 4 Sudoeste 10 Sur 0 -- -- 82
2020-11-17 05:00:00 11.8 4 Sur 10 Sur 0.2 -- -- 94
2020-11-17 04:00:00 12.3 6 Sur 9 Sur 0 -- -- 96
2020-11-17 03:00:00 12.6 0 Calma 12 Sur 0 -- -- 96
2020-11-17 02:00:00 12.4 6 Sur 10 Sur 0 -- -- 97
2020-11-17 01:00:00 12.4 5 Sur 11 Sur 0 -- -- 96
2020-11-17 00:00:00 12.6 4 Sur 9 Sur 0 -- -- 96
2020-11-16 23:00:00 12.4 5 Sur 7 Sur 0 -- -- 96
2020-11-16 22:00:00 12.6 4 Sur 6 Sur 0 -- -- 96
2020-11-16 21:00:00 13.6 4 Noroeste 9 Oeste 0 -- -- 93
2020-11-16 20:00:00 14.1 6 Oeste 9 Noroeste 0 -- -- 91
2020-11-16 19:00:00 15.2 7 Noroeste 9 Oeste 0 -- -- 87
2020-11-16 18:00:00 16.6 3 Noroeste 10 Noroeste 0 -- -- 81
2020-11-16 17:00:00 18.1 6 Norte 14 Noroeste 0 -- -- 76
2020-11-16 16:00:00 19.7 7 Noroeste 13 Noroeste 0 -- -- 71
2020-11-16 15:00:00 19.8 5 Norte 14 Noroeste 0 -- -- 70
2020-11-16 14:00:00 19.5 5 Noroeste 10 Noroeste 0 -- -- 66
2020-11-16 13:00:00 18.5 4 Nordeste 8 Nordeste 0 -- -- 73
2020-11-16 12:00:00 16.6 0 Calma 7 Nordeste 0 -- -- 83
2020-11-16 11:00:00 14.5 3 Nordeste 8 Norte 0 -- -- 96
2020-11-16 10:00:00 13.4 2 Norte 13 Noroeste 0 -- -- 99
2020-11-16 09:00:00 13.5 6 Noroeste 10 Noroeste 0 -- -- 97
2020-11-16 08:00:00 13.2 5 Oeste 15 Noroeste 0 -- -- 97
2020-11-16 07:00:00 13.4 10 Noroeste 18 Noroeste 0 -- -- 98
2020-11-16 06:00:00 12.8 5 Oeste 12 Oeste 0 -- -- 96
2020-11-16 05:00:00 13.2 5 Oeste 13 Sudoeste 0 -- -- 96
2020-11-16 04:00:00 13.3 6 Sudoeste 19 Oeste 0 -- -- 95
2020-11-16 03:00:00 13.3 9 Oeste 17 Oeste 0 -- -- 94
2020-11-16 02:00:00 14.2 6 Sudoeste 17 Sudoeste 0 -- -- 84
2020-11-16 01:00:00 15.4 8 Sudoeste 23 Sur 0 -- -- 79
2020-11-16 00:00:00 15.5 14 Sur 24 Sur 0 -- -- 78
2020-11-15 23:00:00 15.3 14 Sur 23 Sur 0 -- -- 80
2020-11-15 22:00:00 15 10 Sur 18 Sur 0 -- -- 86
2020-11-15 21:00:00 15.5 8 Sur 21 Sur 0 -- -- 85
2020-11-15 20:00:00 15.8 8 Sur 18 Sur 0 -- -- 90
2020-11-15 19:00:00 16.3 7 Sur 19 Sur 0 -- -- 85
2020-11-15 18:00:00 17.5 5 Sur 23 Sur 0 -- -- 76
2020-11-15 17:00:00 19.2 12 Sur 25 Sudoeste 0 -- -- 67
2020-11-15 16:00:00 19.1 15 Sur 34 Sur 0 -- -- 74
2020-11-15 15:00:00 19 17 Sur 33 Sur 0 -- -- 76
2020-11-15 14:00:00 18.8 18 Sur 35 Sur 0 -- -- 77
2020-11-15 13:00:00 18.3 18 Sur 36 Sur 0 -- -- 77
2020-11-15 12:00:00 17.1 21 Sur 35 Sur 0 -- -- 81
2020-11-15 11:00:00 16.9 17 Sur 31 Sur 0 -- -- 81
2020-11-15 10:00:00 15.2 8 Sudeste 23 Sur 0 -- -- 94
2020-11-15 09:00:00 13.3 10 Sudeste 19 Sur 0 -- -- 100
2020-11-15 08:00:00 13.3 10 Sur 27 Sudeste 0 -- -- 100
2020-11-15 07:00:00 13.7 15 Sudeste 25 Sudeste 0 -- -- 99
2020-11-15 06:00:00 13.4 7 Sudeste 24 Sur 0 -- -- 99
2020-11-15 05:00:00 13.5 11 Sur 20 Sur 0.2 -- -- 100
2020-11-15 04:00:00 13.4 9 Sudeste 22 Sudeste 0 -- -- 100
2020-11-15 03:00:00 13.5 11 Sudeste 25 Sur 0 -- -- 100
2020-11-15 02:00:00 13.3 14 Sur 30 Sur 0 -- -- 99
2020-11-15 01:00:00 13.3 10 Sur 17 Sur 0 -- -- 99
2020-11-15 00:00:00 13.5 6 Sudeste 20 Sur 0 -- -- 98
2020-11-14 23:00:00 13.6 6 Sur 19 Sudoeste 0 -- -- 98
2020-11-14 22:00:00 13.4 10 Sur 14 Sur 0 -- -- 98
2020-11-14 21:00:00 13.7 6 Sur 9 Sur 0 -- -- 95
2020-11-14 20:00:00 14.3 4 Sudoeste 9 Sudoeste 0.2 -- -- 94
2020-11-14 19:00:00 14.6 5 Sudoeste 10 Sudoeste 0 -- -- 93
2020-11-14 18:00:00 15.1 6 Sudoeste 18 Oeste 0 -- -- 87
2020-11-14 17:00:00 16.7 8 Oeste 18 Sudoeste 0 -- -- 79
2020-11-14 16:00:00 15.9 7 Sudoeste 20 Sudoeste 0 -- -- 86
2020-11-14 15:00:00 15.7 10 Sudoeste 24 Sudoeste 0 -- -- 90
2020-11-14 14:00:00 15 13 Sudoeste 26 Sudoeste 0 -- -- 93
2020-11-14 13:00:00 14.1 11 Sudoeste 25 Sur 0 -- -- 99
2020-11-14 12:00:00 13.7 12 Sur 28 Sur 0 -- -- 100
2020-11-14 11:00:00 13.3 13 Sur 25 Sur 0 -- -- 100
2020-11-14 10:00:00 12.9 8 Sudeste 31 Sur 0.2 -- -- 100
2020-11-14 09:00:00 12.6 13 Sur 37 Sur 0 -- -- 100
2020-11-14 08:00:00 12.5 14 Sur 33 Sudeste 0.2 -- -- 99
2020-11-14 07:00:00 12.8 15 Sur 26 Sudeste 0.8 -- -- 99
2020-11-14 06:00:00 12.8 10 Sudeste 22 Sudeste 0.2 -- -- 98
2020-11-14 05:00:00 12.8 8 Sudeste 18 Sudeste 0 -- -- 96
2020-11-14 04:00:00 12.8 6 Sudeste 25 Sur 0 -- -- 94
2020-11-14 03:00:00 12.6 6 Sur 19 Sudoeste 0 -- -- 95
2020-11-14 02:00:00 12.8 8 Sudoeste 17 Sur 0.4 -- -- 96
2020-11-14 01:00:00 13 5 Sur 27 Sur 0 -- -- 96
2020-11-14 00:00:00 13 14 Sur 30 Sur 0 -- -- 96
2020-11-13 23:00:00 12.9 9 Sur 20 Sudeste 0 -- -- 93
2020-11-13 22:00:00 13 7 Sudeste 21 Sudeste 0 -- -- 92
2020-11-13 21:00:00 13.3 9 Sudeste 19 Sudeste 0 -- -- 91
2020-11-13 20:00:00 13.1 6 Sudeste 14 Sur 0 -- -- 90
2020-11-13 19:00:00 13.2 6 Este 13 Sudeste 0 -- -- 90
2020-11-13 18:00:00 13.7 7 Este 17 Sudeste 0 -- -- 88
2020-11-13 17:00:00 14.7 5 Sudeste 18 Sudeste 0 -- -- 83
2020-11-13 16:00:00 15.5 8 Sudeste 19 Sur 0 -- -- 80
2020-11-13 15:00:00 14.5 9 Sur 19 Sur 0 -- -- 82
2020-11-13 14:00:00 13.8 9 Sudeste 18 Sudeste 0 -- -- 85
2020-11-13 13:00:00 13.3 9 Sudeste 21 Sudeste 0 -- -- 88
2020-11-13 12:00:00 12.8 13 Sudeste 22 Sudeste 0 -- -- 85
2020-11-13 11:00:00 12.4 9 Sudeste 15 Sudeste 0 -- -- 87
2020-11-13 10:00:00 12.1 7 Sudeste 11 Sudeste 0 -- -- 85
2020-11-13 09:00:00 11 5 Sur 11 Sur 0 -- -- 92
2020-11-13 08:00:00 10.3 6 Sur 10 Sudeste 0 -- -- 92
2020-11-13 07:00:00 10.1 7 Sudeste 9 Sudeste 0 -- -- 93
2020-11-13 06:00:00 8.2 0 Calma -- -- 0 -- -- 95
2020-11-13 05:00:00 8.2 0 Calma 8 Sur 0 -- -- 96
2020-11-13 04:00:00 8.2 0 Calma 7 Sudoeste 0 -- -- 95
2020-11-13 03:00:00 8.3 4 Oeste 6 Sudoeste 0 -- -- 95
2020-11-13 02:00:00 8.6 3 Sudoeste 7 Sudoeste 0 -- -- 91
2020-11-13 01:00:00 9 4 Sudoeste 9 Sudeste 0 -- -- 89
2020-11-13 00:00:00 10.2 6 Sur 10 Sudeste 0 -- -- 85
2020-11-12 23:00:00 9.8 6 Sur 8 Sur 0 -- -- 87
2020-11-12 22:00:00 9.7 5 Sur 8 Sur 0 -- -- 88
2020-11-12 21:00:00 9.5 6 Sur 7 Sur 0 -- -- 88
2020-11-12 20:00:00 9.7 5 Sur 6 Sur 0 -- -- 87
2020-11-12 19:00:00 10.3 3 Sur 8 Sur 0 -- -- 82
2020-11-12 18:00:00 13.6 4 Sur 11 Sur 0 -- -- 68
2020-11-12 17:00:00 15.9 7 Sudeste 19 Sudeste 0 -- -- 60
2020-11-12 16:00:00 16.2 9 Sudeste 21 Sudeste 0 -- -- 58
2020-11-12 15:00:00 15.3 12 Sudeste 27 Este 0 -- -- 62
2020-11-12 14:00:00 15.8 13 Este 28 Este 0 -- -- 66
2020-11-12 13:00:00 15.8 13 Este 25 Sudeste 0 -- -- 66
2020-11-12 12:00:00 14.1 10 Sudeste 21 Sudeste 0 -- -- 76
2020-11-12 11:00:00 13.3 12 Sudeste 21 Sudeste 0 -- -- 77
2020-11-12 10:00:00 12.6 10 Sudeste 28 Sudeste 0 -- -- 79
2020-11-12 09:00:00 10.4 9 Sudeste 18 Sudeste 0 -- -- 89
2020-11-12 08:00:00 10.3 7 Sudeste 21 Sudeste 0 -- -- 87
2020-11-12 07:00:00 10.9 10 Sudeste 18 Sudeste 0 -- -- 86
2020-11-12 06:00:00 10.9 10 Sudeste 23 Sur 0 -- -- 86
2020-11-12 05:00:00 9.7 6 Sudeste 10 Sur 0 -- -- 90
2020-11-12 04:00:00 10 6 Sudeste 11 Sudeste 0 -- -- 89
2020-11-12 03:00:00 10 8 Sur 10 Sur 0 -- -- 88
2020-11-12 02:00:00 9.7 5 Sur 8 Sur 0 -- -- 88
2020-11-12 01:00:00 10.1 0 Calma 8 Sur 0 -- -- 89
2020-11-12 00:00:00 10.5 4 Sudeste 15 Sudeste 0 -- -- 87
2020-11-11 23:00:00 10.9 4 Este 15 Sudeste 0 -- -- 87
2020-11-11 22:00:00 11.1 8 Sudeste 14 Sudeste 0 -- -- 85
2020-11-11 21:00:00 11.2 8 Sudeste 13 Sudeste 0 -- -- 85
2020-11-11 20:00:00 11.5 4 Sudeste 11 Sudeste 0 -- -- 84
2020-11-11 19:00:00 12.1 5 Sudeste 8 Sudeste 0 -- -- 80
2020-11-11 18:00:00 14.1 6 Sudeste 13 Sudeste 0 -- -- 72
2020-11-11 17:00:00 15.6 7 Sudeste 16 Este 0 -- -- 68
2020-11-11 16:00:00 16.2 8 Este 15 Sudeste 0 -- -- 68
2020-11-11 15:00:00 16.9 6 Sur 22 Sudeste 0 -- -- 65
2020-11-11 14:00:00 16.5 11 Sudeste 26 Sudeste 0 -- -- 67
2020-11-11 13:00:00 15.8 14 Sudeste 32 Sur 0 -- -- 70
2020-11-11 12:00:00 15 17 Sudeste 29 Sudeste 0 -- -- 73
2020-11-11 11:00:00 14.1 14 Sudeste 28 Sudeste 0 -- -- 78
2020-11-11 10:00:00 12.8 10 Sudeste 20 Sudeste 0 -- -- 84
2020-11-11 09:00:00 11 9 Sudeste 21 Sudeste 0 -- -- 90
2020-11-11 08:00:00 10 12 Sudeste 21 Sudeste 0 -- -- 95
2020-11-11 07:00:00 9.4 7 Sudeste 18 Sudeste 0 -- -- 92
2020-11-11 06:00:00 10.4 13 Sudeste 31 Sudeste 0 -- -- 87
2020-11-11 05:00:00 10.3 14 Sudeste 25 Sudeste 0 -- -- 87
2020-11-11 04:00:00 9 0 Calma 6 Sur 0 -- -- 92
2020-11-11 03:00:00 9.1 0 Calma 8 Sur 0 -- -- 88
2020-11-11 02:00:00 10.1 3 Sudeste 8 Sur 0 -- -- 81
2020-11-11 01:00:00 10 5 Sur 9 Sur 0 -- -- 82
2020-11-11 00:00:00 10.3 6 Sur 14 Sudeste 0 -- -- 84
2020-11-10 23:00:00 10.4 7 Sudeste 12 Sudeste 0 -- -- 85
2020-11-10 22:00:00 10.5 3 Sudeste 12 Este 0 -- -- 85
2020-11-10 21:00:00 10.9 7 Este 14 Este 0 -- -- 83
2020-11-10 20:00:00 11.1 3 Este 10 Este 0 -- -- 80
2020-11-10 19:00:00 12.2 0 Calma 9 Nordeste 0 -- -- 77
2020-11-10 18:00:00 14.1 5 Nordeste 18 Nordeste 0 -- -- 68
2020-11-10 17:00:00 15.4 10 Nordeste 20 Este 0 -- -- 62
2020-11-10 16:00:00 15.8 7 Este 21 Este 0 -- -- 65
2020-11-10 15:00:00 16.1 10 Nordeste 21 Nordeste 0 -- -- 62
2020-11-10 14:00:00 15.4 12 Nordeste 19 Nordeste 0 -- -- 63
2020-11-10 13:00:00 14.8 9 Nordeste 18 Este 0 -- -- 72
2020-11-10 12:00:00 14.2 8 Nordeste 16 Nordeste 0 -- -- 79
2020-11-10 11:00:00 12.8 8 Este 13 Nordeste 0 -- -- 85
2020-11-10 10:00:00 11.2 0 Calma 9 Nordeste 0.2 -- -- 97
2020-11-10 09:00:00 9.7 0 Calma -- -- 0 -- -- 100
2020-11-10 08:00:00 8.1 0 Calma -- -- 0 -- -- 99
2020-11-10 07:00:00 8.6 0 Calma -- -- 0 -- -- 99
2020-11-10 06:00:00 8.8 0 Calma 7 Norte 0 -- -- 99
2020-11-10 05:00:00 8.8 0 Calma 6 Noroeste 0.2 -- -- 99
2020-11-10 04:00:00 8.9 3 Noroeste 9 Noroeste 0 -- -- 98
2020-11-10 03:00:00 9 4 Noroeste 8 Noroeste 0 -- -- 97
2020-11-10 02:00:00 9.1 5 Noroeste 8 Noroeste 0 -- -- 97
2020-11-10 01:00:00 9.4 5 Noroeste 6 Noroeste 0 -- -- 96
2020-11-10 00:00:00 9.5 3 Noroeste 8 Oeste 0 -- -- 95
2020-11-09 23:00:00 9.8 6 Oeste 9 Oeste 0 -- -- 94
2020-11-09 22:00:00 10.1 4 Noroeste 6 Noroeste 0 -- -- 92
2020-11-09 21:00:00 10.6 2 Noroeste 6 Noroeste 0 -- -- 89
2020-11-09 20:00:00 11.4 3 Noroeste 8 Noroeste 0 -- -- 87
2020-11-09 19:00:00 12.2 4 Noroeste 9 Noroeste 0 -- -- 82
2020-11-09 18:00:00 13.8 5 Norte 10 Noroeste 0 -- -- 72
2020-11-09 17:00:00 14.8 6 Noroeste 13 Norte 0 -- -- 63
2020-11-09 16:00:00 15.1 9 Norte 16 Norte 0 -- -- 62
2020-11-09 15:00:00 15.1 7 Noroeste 17 Norte 0 -- -- 66
2020-11-09 14:00:00 14.7 6 Oeste 13 Norte 0 -- -- 70
2020-11-09 13:00:00 13.3 4 Noroeste 14 Noroeste 0 -- -- 77
2020-11-09 12:00:00 12.1 4 Noroeste 15 Norte 0 -- -- 91
2020-11-09 11:00:00 11.8 5 Norte 12 Noroeste 0 -- -- 91
2020-11-09 10:00:00 11.1 4 Noroeste 9 Noroeste 0 -- -- 98
2020-11-09 09:00:00 10.4 0 Calma 9 Noroeste 0 -- -- 99
2020-11-09 08:00:00 10.7 4 Noroeste 10 Oeste 0 -- -- 99
2020-11-09 07:00:00 10.6 5 Noroeste 13 Noroeste 0 -- -- 99
2020-11-09 06:00:00 10.9 6 Noroeste 14 Oeste 0 -- -- 99
2020-11-09 05:00:00 11.2 9 Noroeste 16 Noroeste 0.2 -- -- 98
2020-11-09 04:00:00 11.2 8 Noroeste 24 Noroeste 2.6 -- -- 97
2020-11-09 03:00:00 12.3 5 Sudoeste 25 Sudoeste 0.6 -- -- 97
2020-11-09 02:00:00 12.2 11 Sur 31 Sur 1.6 -- -- 97
2020-11-09 01:00:00 12.2 15 Sur 31 Sur 1.4 -- -- 96
2020-11-09 00:00:00 12.3 18 Sur 35 Sur 0.6 -- -- 96
2020-11-08 23:00:00 12.2 15 Sur 28 Sudoeste 0 -- -- 95
2020-11-08 22:00:00 12.3 15 Sur 28 Sudoeste 1.4 -- -- 95
2020-11-08 21:00:00 12.9 10 Sur 25 Sur 0 -- -- 92
2020-11-08 20:00:00 13 12 Sur 26 Sudoeste 0 -- -- 91
2020-11-08 19:00:00 13.1 6 Sudeste 24 Sur 0 -- -- 91
2020-11-08 18:00:00 13.7 14 Sur 27 Sur 0 -- -- 86
2020-11-08 17:00:00 14.6 8 Sur 24 Sudeste 0 -- -- 79
2020-11-08 16:00:00 15.8 9 Sur 24 Sudoeste 0 -- -- 76
2020-11-08 15:00:00 15.8 9 Sudeste 24 Sur 0 -- -- 74
2020-11-08 14:00:00 14.3 8 Sur 26 Sur 0 -- -- 83
2020-11-08 13:00:00 14.7 9 Sur 24 Sudoeste 0 -- -- 79
2020-11-08 12:00:00 13.4 9 Sur 20 Sudoeste 0 -- -- 86
2020-11-08 11:00:00 12.2 8 Sudeste 28 Sur 0 -- -- 93
2020-11-08 10:00:00 10.9 12 Sudeste 28 Este 0 -- -- 99
2020-11-08 09:00:00 10.6 11 Este 19 Sudeste 0 -- -- 99
2020-11-08 08:00:00 10.7 8 Sudeste 26 Sudeste 0 -- -- 98
2020-11-08 07:00:00 11 4 Sudeste 16 Sudeste 0 -- -- 97
2020-11-08 06:00:00 11.3 5 Este 28 Sur 0 -- -- 94
2020-11-08 05:00:00 11.2 9 Sur 30 Sur 0 -- -- 93
2020-11-08 04:00:00 11.2 13 Sur 32 Sur 0 -- -- 94
2020-11-08 03:00:00 11.4 10 Sur 28 Sur 0 -- -- 94
2020-11-08 02:00:00 11.5 7 Sudeste 23 Sudeste 0 -- -- 95
2020-11-08 01:00:00 11.3 7 Sur 18 Sudeste 0 -- -- 94
2020-11-08 00:00:00 11.4 5 Este 16 Sudeste 0 -- -- 92
2020-11-07 23:00:00 11.5 3 Sudeste 18 Sur 0 -- -- 93
2020-11-07 22:00:00 11.7 8 Sudeste 18 Sudeste 0 -- -- 91
2020-11-07 21:00:00 12 6 Sur 14 Sudeste 0 -- -- 88
2020-11-07 20:00:00 12.2 5 Sur 15 Sur 0 -- -- 85
2020-11-07 19:00:00 12.5 9 Sur 19 Sur 0 -- -- 81
2020-11-07 18:00:00 13.4 9 Sur 17 Sudeste 0 -- -- 76
2020-11-07 17:00:00 14.1 12 Sur 27 Sur 0 -- -- 76
2020-11-07 16:00:00 14.5 17 Sur 29 Sudoeste 0 -- -- 70
2020-11-07 15:00:00 14.3 10 Sudoeste 27 Sudoeste 0 -- -- 71
2020-11-07 14:00:00 14.5 17 Sudoeste 36 Sudoeste 0 -- -- 73
2020-11-07 13:00:00 13.4 11 Sudoeste 27 Sudoeste 0 -- -- 78
2020-11-07 12:00:00 13.2 13 Sudoeste 26 Sudoeste 0 -- -- 81
2020-11-07 11:00:00 12.3 11 Sudoeste 25 Sudoeste 0 -- -- 86
2020-11-07 10:00:00 10.7 8 Sudoeste 22 Sudoeste 0 -- -- 93
2020-11-07 09:00:00 10.1 5 Sudoeste 15 Sudoeste 0 -- -- 94
2020-11-07 08:00:00 9.8 11 Sudoeste 27 Sudoeste 0.4 -- -- 96
2020-11-07 07:00:00 9.8 12 Sur 24 Sur 0 -- -- 99
2020-11-07 06:00:00 9.7 12 Sur 26 Sudeste 0.4 -- -- 99
2020-11-07 05:00:00 9.7 14 Sur 31 Sur 1 -- -- 99
2020-11-07 04:00:00 9.8 11 Sur 26 Sur 0.2 -- -- 98
2020-11-07 03:00:00 10.1 18 Sur 30 Sur 0.8 -- -- 96
2020-11-07 02:00:00 10.3 12 Sur 26 Sudeste 0 -- -- 92
2020-11-07 01:00:00 10.8 13 Sudoeste 41 Sudoeste 1 -- -- 88
2020-11-07 00:00:00 12.2 15 Sur 29 Sudoeste 10.2 -- -- 96
2020-11-06 23:00:00 12.6 14 Sur 41 Sudeste 0 -- -- 95
2020-11-06 22:00:00 12.7 20 Sur 45 Sur 0 -- -- 93
2020-11-06 21:00:00 13.1 20 Sur 40 Sur 0 -- -- 91
2020-11-06 20:00:00 13 20 Sudeste 37 Sur 0.2 -- -- 93
2020-11-06 19:00:00 13.3 22 Sudeste 39 Sur 0.4 -- -- 91
2020-11-06 18:00:00 14.1 12 Sudoeste 39 Sur 0 -- -- 79
2020-11-06 17:00:00 15.5 19 Sur 53 Sudoeste 0 -- -- 75
2020-11-06 16:00:00 16.2 26 Sur 45 Sur 0 -- -- 72
2020-11-06 15:00:00 17.1 16 Sudeste 32 Sur 0 -- -- 65
2020-11-06 14:00:00 17.6 17 Sudeste 41 Sur 0 -- -- 65
2020-11-06 13:00:00 17.3 15 Sur 28 Sur 0 -- -- 66
2020-11-06 12:00:00 16.4 15 Sur 38 Sudeste 0 -- -- 64
2020-11-06 11:00:00 15.8 18 Sudeste 37 Sur 0 -- -- 64
2020-11-06 10:00:00 15.9 22 Sudeste 41 Sudeste 0 -- -- 60
2020-11-06 09:00:00 13.8 13 Sudeste 24 Sudeste 0 -- -- 65
2020-11-06 08:00:00 12.9 10 Sudeste 19 Sudeste 0 -- -- 70
2020-11-06 07:00:00 12.5 9 Sudeste 17 Sur 0 -- -- 76
2020-11-06 06:00:00 13 8 Sudeste 19 Sur 0 -- -- 76
2020-11-06 05:00:00 13.5 8 Sur 20 Sur 0 -- -- 74
2020-11-06 04:00:00 13.3 10 Sudeste 41 Sur 0 -- -- 77
2020-11-06 03:00:00 13.6 14 Sur 33 Sur 0 -- -- 73
2020-11-06 02:00:00 12.8 13 Sur 36 Sudeste 0 -- -- 80
2020-11-06 01:00:00 12.8 18 Sur 31 Sur 0 -- -- 81
2020-11-06 00:00:00 12.3 12 Sudeste 30 Sudeste 0 -- -- 84
2020-11-05 23:00:00 12.4 14 Sudeste 30 Sudeste 0 -- -- 84
2020-11-05 22:00:00 12.5 14 Sudeste 29 Sudeste 0 -- -- 85
2020-11-05 21:00:00 12.5 17 Sudeste 30 Sudeste 0 -- -- 87
2020-11-05 20:00:00 12.3 9 Sudeste 23 Sur 0 -- -- 89
2020-11-05 19:00:00 12.7 13 Sudeste 28 Sudeste 0 -- -- 92
2020-11-05 18:00:00 12.7 16 Sudeste 27 Sudeste 0 -- -- 91
2020-11-05 17:00:00 13.5 13 Sudeste 31 Sudeste 0 -- -- 84
2020-11-05 16:00:00 13.8 18 Sudeste 30 Sudeste 0 -- -- 86
2020-11-05 15:00:00 12.8 17 Sudeste 30 Sudeste 0 -- -- 92
2020-11-05 14:00:00 11.7 13 Sudeste 27 Sudeste 0 -- -- 100
2020-11-05 13:00:00 11.3 16 Sudeste 30 Sur 0 -- -- 100
2020-11-05 12:00:00 11 15 Sudeste 37 Sudeste 0.2 -- -- 100
2020-11-05 11:00:00 10.6 17 Sudeste 35 Sudeste 0.6 -- -- 100
2020-11-05 10:00:00 10.3 16 Sudeste 41 Sudeste 2 -- -- 100
2020-11-05 09:00:00 10.4 15 Sudeste 46 Sudeste 1.4 -- -- 100
2020-11-05 08:00:00 10.2 21 Sur 45 Sudeste 1.8 -- -- 100
2020-11-05 07:00:00 10.4 20 Sudeste 43 Sudeste 2.2 -- -- 100
2020-11-05 06:00:00 10.2 12 Sudeste 20 Este 3.8 -- -- 99
2020-11-05 05:00:00 9.8 8 Este 21 Este 3.8 -- -- 99
2020-11-05 04:00:00 9.8 15 Este 37 Sudeste 2.6 -- -- 98
2020-11-05 03:00:00 10.7 19 Sudeste 41 Sudeste 4.4 -- -- 98
2020-11-05 02:00:00 11 17 Este 31 Este 0.2 -- -- 98
2020-11-05 01:00:00 10.9 10 Sudeste 19 Sudeste 0.2 -- -- 98
2020-11-05 00:00:00 10.8 12 Sudeste 24 Sudeste 0.2 -- -- 97
2020-11-04 23:00:00 10.6 12 Sudeste 24 Sudeste 0 -- -- 98
2020-11-04 22:00:00 10.9 10 Sudeste 18 Sudeste 0 -- -- 98
2020-11-04 21:00:00 11.3 9 Sudeste 23 Sudeste 0 -- -- 98
2020-11-04 20:00:00 11.4 7 Sudeste 17 Sudeste 2 -- -- 98
2020-11-04 19:00:00 11.3 7 Este 22 Sudeste 0.2 -- -- 97
2020-11-04 18:00:00 11.6 9 Sur 19 Sudoeste 1.8 -- -- 97
2020-11-04 17:00:00 10.2 13 Sudoeste 23 Sudoeste 6.4 -- -- 90
2020-11-04 16:00:00 12.3 17 Sudeste 32 Sudeste 0 -- -- 88
2020-11-04 15:00:00 13.4 9 Sur 18 Sudeste 0.2 -- -- 92
2020-11-04 14:00:00 12.5 8 Sur 16 Sudoeste 0.4 -- -- 98
2020-11-04 13:00:00 12.5 5 Sur 18 Sudeste 0 -- -- 96
2020-11-04 12:00:00 12.3 5 Sudeste 14 Sur 0 -- -- 96
2020-11-04 11:00:00 11.9 8 Este 20 Este 0 -- -- 94
2020-11-04 10:00:00 13.1 9 Sudeste 16 Sudeste 0 -- -- 88
2020-11-04 09:00:00 12.3 2 Este 11 Sudeste 0 -- -- 91
2020-11-04 08:00:00 11.8 6 Sur 18 Sur 0 -- -- 88
2020-11-04 07:00:00 11.6 0 Calma 4 Sudeste 0 -- -- 96
2020-11-04 06:00:00 11.7 3 Sur 10 Sudoeste 0 -- -- 94
2020-11-04 05:00:00 11 3 Sudeste 11 Sudoeste 0 -- -- 98
2020-11-04 04:00:00 10.4 5 Oeste 8 Noroeste 0 -- -- 95
2020-11-04 03:00:00 10.5 5 Oeste 8 Oeste 0 -- -- 94
2020-11-04 02:00:00 10.7 0 Calma 5 Oeste 0 -- -- 97
2020-11-04 01:00:00 10.3 5 Oeste 9 Oeste 0 -- -- 95
2020-11-04 00:00:00 10.7 4 Oeste 9 Noroeste 0 -- -- 94
2020-11-03 23:00:00 11.5 5 Oeste 9 Oeste 0 -- -- 94
2020-11-03 22:00:00 12.1 6 Oeste 7 Oeste 0 -- -- 96
2020-11-03 21:00:00 12.6 5 Noroeste 8 Norte 0 -- -- 96
2020-11-03 20:00:00 13.2 5 Norte 8 Noroeste 0 -- -- 96
2020-11-03 19:00:00 13.8 6 Noroeste 9 Noroeste 0 -- -- 95
2020-11-03 18:00:00 14.5 5 Noroeste 13 Norte 0 -- -- 95
2020-11-03 17:00:00 14.9 5 Norte 12 Norte 0 -- -- 96
2020-11-03 16:00:00 14.5 4 Noroeste 13 Oeste 0 -- -- 99
2020-11-03 15:00:00 14.1 7 Noroeste 12 Norte 0 -- -- 99
2020-11-03 14:00:00 13.9 4 Noroeste 13 Noroeste 0 -- -- 100
2020-11-03 13:00:00 13.5 6 Noroeste 14 Noroeste 0.4 -- -- 99
2020-11-03 12:00:00 14.5 4 Norte 8 Noroeste 1.4 -- -- 98
2020-11-03 11:00:00 14.2 3 Norte 10 Norte 0.6 -- -- 98
2020-11-03 10:00:00 14.2 4 Norte 10 Noroeste 1 -- -- 97
2020-11-03 09:00:00 14.1 3 Sudeste 7 Noroeste 0 -- -- 98
2020-11-03 08:00:00 13.8 4 Noroeste 10 Oeste 0 -- -- 99
2020-11-03 07:00:00 13.9 6 Noroeste 12 Noroeste 0 -- -- 99
2020-11-03 06:00:00 13.9 5 Noroeste 13 Noroeste 0 -- -- 99
2020-11-03 05:00:00 13.8 8 Noroeste 17 Noroeste 0 -- -- 98
2020-11-03 04:00:00 13.9 7 Noroeste 17 Noroeste 0 -- -- 97
2020-11-03 03:00:00 13.7 8 Noroeste 18 Noroeste 0 -- -- 96
2020-11-03 02:00:00 13.9 9 Noroeste 17 Noroeste 0 -- -- 97
2020-11-03 01:00:00 14.1 5 Noroeste 15 Noroeste 0 -- -- 96
2020-11-03 00:00:00 14.2 7 Noroeste 13 Noroeste 0 -- -- 95
2020-11-02 23:00:00 14.5 6 Noroeste 14 Noroeste 0 -- -- 95
2020-11-02 22:00:00 14.8 9 Noroeste 16 Norte 0 -- -- 95
2020-11-02 21:00:00 15.3 8 Noroeste 16 Noroeste 0 -- -- 94
2020-11-02 20:00:00 15.7 7 Noroeste 13 Noroeste 0 -- -- 92
2020-11-02 19:00:00 16.6 6 Noroeste 13 Noroeste 0 -- -- 85
2020-11-02 18:00:00 17.6 8 Noroeste 15 Noroeste 0 -- -- 79
2020-11-02 17:00:00 19.6 8 Noroeste 13 Noroeste 0 -- -- 65
2020-11-02 16:00:00 20.6 7 Noroeste 14 Noroeste 0 -- -- 55
2020-11-02 15:00:00 22.5 4 Norte 11 Oeste 0 -- -- 46
2020-11-02 14:00:00 21.5 4 Nordeste 12 Norte 0 -- -- 48
2020-11-02 13:00:00 19.8 5 Norte 12 Noroeste 0 -- -- 57
2020-11-02 12:00:00 18.7 4 Norte 8 Norte 0 -- -- 66
2020-11-02 11:00:00 17.8 0 Calma 4 Este 0 -- -- 68
2020-11-02 10:00:00 15.8 0 Calma -- -- 0 -- -- 76
2020-11-02 09:00:00 13.7 0 Calma -- -- 0 -- -- 86
2020-11-02 08:00:00 10.1 0 Calma -- -- 0 -- -- 90
2020-11-02 07:00:00 10.2 0 Calma 3 Noroeste 0 -- -- 87
2020-11-02 06:00:00 10.5 2 Oeste 4 Oeste 0 -- -- 93
2020-11-02 05:00:00 10.6 0 Calma -- -- 0 -- -- 94
2020-11-02 04:00:00 10.6 0 Calma 5 Oeste 0 -- -- 93
2020-11-02 03:00:00 10.8 0 Calma 5 Oeste 0 -- -- 93
2020-11-02 02:00:00 11.6 5 Oeste 8 Oeste 0 -- -- 92
2020-11-02 01:00:00 12 5 Oeste 8 Oeste 0 -- -- 90
2020-11-02 00:00:00 12.6 4 Oeste 8 Oeste 0 -- -- 89
2020-11-01 23:00:00 12.2 4 Oeste 7 Oeste 0 -- -- 91
2020-11-01 22:00:00 12.7 3 Oeste 5 Norte 0 -- -- 87
2020-11-01 21:00:00 14.8 3 Noroeste 9 Norte 0 -- -- 80
2020-11-01 20:00:00 15.5 3 Noroeste 9 Oeste 0 -- -- 77
2020-11-01 19:00:00 16.7 6 Noroeste 8 Noroeste 0 -- -- 72
2020-11-01 18:00:00 19.3 5 Norte 10 Norte 0 -- -- 62
2020-11-01 17:00:00 20.3 4 Noroeste 12 Norte 0 -- -- 59
2020-11-01 16:00:00 20.6 4 Norte 9 Nordeste 0 -- -- 57
2020-11-01 15:00:00 20.3 4 Nordeste 10 Norte 0 -- -- 58
2020-11-01 14:00:00 19.9 4 Nordeste 10 Nordeste 0 -- -- 60
2020-11-01 13:00:00 19.9 6 Nordeste 11 Nordeste 0 -- -- 63
2020-11-01 12:00:00 18.9 4 Nordeste 10 Norte 0 -- -- 67
2020-11-01 11:00:00 17.8 5 Nordeste 9 Nordeste 0 -- -- 72
2020-11-01 10:00:00 15.9 2 Noroeste 10 Noroeste 0 -- -- 82
2020-11-01 09:00:00 13.9 6 Noroeste 9 Noroeste 0 -- -- 90
2020-11-01 08:00:00 10.9 0 Calma 4 Noroeste 0 -- -- 95
2020-11-01 07:00:00 11.5 3 Noroeste 5 Noroeste 0 -- -- 93
2020-11-01 06:00:00 12.1 5 Oeste 10 Oeste 0 -- -- 91
2020-11-01 05:00:00 11.9 4 Oeste 10 Oeste 0 -- -- 89
2020-11-01 04:00:00 12.7 6 Oeste 9 Noroeste 0 -- -- 88
2020-11-01 03:00:00 13.3 7 Noroeste 10 Oeste 0 -- -- 87
2020-11-01 02:00:00 13.8 8 Oeste 13 Oeste 0 -- -- 83
2020-11-01 01:00:00 14.2 10 Oeste 15 Noroeste 0 -- -- 81
2020-11-01 00:00:00 14.2 8 Oeste 10 Oeste 0 -- -- 73
2020-10-31 23:00:00 14.2 5 Noroeste 8 Noroeste 0 -- -- 74
2020-10-31 22:00:00 14.3 5 Noroeste 9 Oeste 0 -- -- 75
2020-10-31 21:00:00 15.4 8 Oeste 12 Noroeste 0 -- -- 72
2020-10-31 20:00:00 16.1 9 Oeste 14 Noroeste 0 -- -- 70
2020-10-31 19:00:00 16.9 5 Noroeste 7 Oeste 0 -- -- 64
2020-10-31 18:00:00 20.2 3 Noroeste 12 Norte 0 -- -- 53
2020-10-31 17:00:00 21.4 7 Norte 12 Norte 0 -- -- 50
2020-10-31 16:00:00 22.1 5 Nordeste 11 Norte 0 -- -- 47
2020-10-31 15:00:00 21.6 5 Norte 19 Noroeste 0 -- -- 46
2020-10-31 14:00:00 22.5 7 Noroeste 17 Noroeste 0 -- -- 42
2020-10-31 13:00:00 21.6 3 Nordeste 12 Este 0 -- -- 43
2020-10-31 12:00:00 20.4 4 Nordeste 9 Nordeste 0 -- -- 47
2020-10-31 11:00:00 19.3 4 Norte 9 Noroeste 0 -- -- 56
2020-10-31 10:00:00 17.7 5 Noroeste 9 Noroeste 0 -- -- 62
2020-10-31 09:00:00 14.1 0 Calma 5 Sudoeste 0 -- -- 75
2020-10-31 08:00:00 10.8 3 Sudoeste 5 Sudoeste 0 -- -- 87
2020-10-31 07:00:00 10.9 0 Calma 8 Oeste 0 -- -- 87
2020-10-31 06:00:00 11.2 4 Oeste 6 Oeste 0 -- -- 77
2020-10-31 05:00:00 11.5 0 Calma 5 Sudoeste 0 -- -- 72
2020-10-31 04:00:00 12 3 Sudoeste 8 Sudoeste 0 -- -- 71
2020-10-31 03:00:00 12 4 Sur 5 Sudoeste 0 -- -- 76
2020-10-31 02:00:00 12.2 3 Sudoeste 4 Sudoeste 0 -- -- 79
2020-10-31 01:00:00 12.6 3 Sudoeste 6 Oeste 0 -- -- 79
2020-10-31 00:00:00 13.1 4 Oeste 8 Oeste 0 -- -- 78
2020-10-30 23:00:00 13.5 6 Oeste 9 Oeste 0 -- -- 78
2020-10-30 22:00:00 14.2 5 Sudoeste 10 Oeste 0 -- -- 74
2020-10-30 21:00:00 13.9 3 Sudoeste 9 Sudoeste 0 -- -- 72
2020-10-30 20:00:00 15.7 4 Sudoeste 8 Sur 0 -- -- 67
2020-10-30 19:00:00 16 5 Sur 7 Sudoeste 0 -- -- 65
2020-10-30 18:00:00 18.4 5 Sudoeste 6 Sudoeste 0 -- -- 59
2020-10-30 17:00:00 20.7 0 Calma 12 Sur 0 -- -- 51
2020-10-30 16:00:00 21.7 5 Sudeste 15 Sudeste 0 -- -- 48
2020-10-30 15:00:00 22.7 8 Sudeste 17 Este 0 -- -- 43
2020-10-30 14:00:00 22.1 9 Sudeste 23 Sur 0 -- -- 45
2020-10-30 13:00:00 21.3 14 Sudeste 33 Sudeste 0 -- -- 48
2020-10-30 12:00:00 20.3 20 Sudeste 36 Sudeste 0 -- -- 48
2020-10-30 11:00:00 19.9 18 Sudeste 33 Sudeste 0 -- -- 48
2020-10-30 10:00:00 18.7 17 Sudeste 28 Sudeste 0 -- -- 52
2020-10-30 09:00:00 16.4 17 Sudeste 26 Sudeste 0 -- -- 60
2020-10-30 08:00:00 14.7 16 Sudeste 27 Sudeste 0 -- -- 69
2020-10-30 07:00:00 15 17 Sudeste 26 Sudeste 0 -- -- 66
2020-10-30 06:00:00 15.3 17 Sudeste 26 Sudeste 0 -- -- 60
2020-10-30 05:00:00 15.7 13 Sudeste 21 Sudeste 0 -- -- 61
2020-10-30 04:00:00 15.2 11 Sudeste 19 Sur 0 -- -- 61
2020-10-30 03:00:00 15.2 12 Sudeste 19 Sudeste 0 -- -- 61
2020-10-30 02:00:00 14.7 10 Sudeste 15 Sur 0 -- -- 63
2020-10-30 01:00:00 13.9 9 Sudeste 12 Sudeste 0 -- -- 68
2020-10-30 00:00:00 13.3 5 Sur 9 Sudeste 0 -- -- 70
2020-10-29 23:00:00 14.5 6 Sur 12 Sudeste 0 -- -- 66
2020-10-29 22:00:00 15.1 5 Sudeste 14 Sudeste 0 -- -- 64
2020-10-29 21:00:00 13.5 2 Sur 5 Sur 0 -- -- 71
2020-10-29 20:00:00 14.7 0 Calma 8 Sur 0 -- -- 66
2020-10-29 19:00:00 16.3 6 Sur 9 Sudeste 0 -- -- 60
2020-10-29 18:00:00 19.6 5 Sur 13 Sudeste 0 -- -- 50
2020-10-29 17:00:00 21.8 9 Sudeste 22 Sudeste 0 -- -- 44
2020-10-29 16:00:00 22.2 11 Sudeste 22 Este 0 -- -- 44
2020-10-29 15:00:00 22.1 12 Sudeste 23 Sudeste 0 -- -- 48
2020-10-29 14:00:00 21.7 12 Sudeste 21 Sudeste 0 -- -- 48
2020-10-29 13:00:00 20.5 11 Sudeste 21 Sudeste 0 -- -- 56
2020-10-29 12:00:00 19.2 11 Sudeste 17 Sudeste 0 -- -- 62
2020-10-29 11:00:00 16.8 4 Nordeste 8 Nordeste 0 -- -- 81
2020-10-29 10:00:00 15 2 Nordeste 4 Nordeste 0 -- -- 86
2020-10-29 09:00:00 13 3 Este 7 Sur 0 -- -- 98
2020-10-29 08:00:00 10.5 2 Sudeste 7 Sudeste 0.2 -- -- 97
2020-10-29 07:00:00 10.4 0 Calma -- -- 0 -- -- 98
2020-10-29 06:00:00 10.4 0 Calma 2 Sur 0 -- -- 98
2020-10-29 05:00:00 10.8 0 Calma 4 Norte 0 -- -- 97
2020-10-29 04:00:00 10.8 0 Calma 4 Sur 0 -- -- 96
2020-10-29 03:00:00 11.5 4 Sudeste 11 Sudeste 0 -- -- 96
2020-10-29 02:00:00 11.2 4 Sudeste 10 Sur 0 -- -- 97
2020-10-29 01:00:00 11.5 0 Calma 3 Nordeste 0 -- -- 96
2020-10-29 00:00:00 12.3 0 Calma 3 Nordeste 0 -- -- 96
2020-10-28 23:00:00 12 2 Noroeste 7 Nordeste 0 -- -- 96
2020-10-28 22:00:00 12.5 4 Norte 10 Norte 0 -- -- 95
2020-10-28 21:00:00 13.1 5 Norte 10 Norte 0 -- -- 93
2020-10-28 20:00:00 13.8 6 Noroeste 11 Noroeste 0 -- -- 89
2020-10-28 19:00:00 14.5 4 Oeste 8 Norte 0 -- -- 85
2020-10-28 18:00:00 15.9 5 Norte 17 Norte 0 -- -- 80
2020-10-28 17:00:00 17.2 10 Nordeste 18 Nordeste 0 -- -- 75
2020-10-28 16:00:00 17.4 6 Norte 20 Norte 0 -- -- 73
2020-10-28 15:00:00 17.5 11 Norte 18 Norte 0 -- -- 73
2020-10-28 14:00:00 17 6 Noroeste 17 Noroeste 0 -- -- 73
2020-10-28 13:00:00 16.2 5 Norte 10 Nordeste 0 -- -- 74
2020-10-28 12:00:00 14.4 5 Noroeste 11 Noroeste 0 -- -- 79
2020-10-28 11:00:00 13 4 Norte 10 Norte 0 -- -- 82
2020-10-28 10:00:00 11.9 4 Nordeste 9 Norte 0 -- -- 87
2020-10-28 09:00:00 10.7 0 Calma 3 Sur 0 -- -- 92
2020-10-28 08:00:00 9 2 Norte 7 Norte 0 -- -- 95
2020-10-28 07:00:00 8.3 3 Noroeste 6 Noroeste 0 -- -- 94
2020-10-28 06:00:00 8.2 5 Noroeste 8 Noroeste 0 -- -- 92
2020-10-28 05:00:00 8.4 5 Oeste 10 Noroeste 0 -- -- 90
2020-10-28 04:00:00 8.5 7 Oeste 10 Oeste 0 -- -- 90
2020-10-28 03:00:00 8.7 5 Oeste 10 Oeste 0 -- -- 90
2020-10-28 02:00:00 8.3 7 Oeste 10 Noroeste 0 -- -- 92
2020-10-28 01:00:00 8.1 5 Oeste 7 Oeste 0 -- -- 92
2020-10-28 00:00:00 8.3 6 Oeste 8 Oeste 0 -- -- 91
2020-10-27 23:00:00 8.7 3 Noroeste 5 Noroeste 0 -- -- 89
2020-10-27 22:00:00 9.2 3 Noroeste 6 Noroeste 0 -- -- 87
2020-10-27 21:00:00 9.5 3 Noroeste 7 Noroeste 0 -- -- 84
2020-10-27 20:00:00 10.9 4 Norte 16 Norte 0 -- -- 80
2020-10-27 19:00:00 11.7 7 Norte 13 Noroeste 0 -- -- 76
2020-10-27 18:00:00 12.8 6 Noroeste 18 Noroeste 0 -- -- 67
2020-10-27 17:00:00 13.7 9 Norte 16 Noroeste 0 -- -- 60
2020-10-27 16:00:00 14.2 8 Noroeste 20 Noroeste 0 -- -- 58
2020-10-27 15:00:00 13.9 8 Norte 18 Noroeste 0 -- -- 56
2020-10-27 14:00:00 13.7 9 Norte 17 Noroeste 0 -- -- 57
2020-10-27 13:00:00 12.8 6 Noroeste 18 Noroeste 0 -- -- 61
2020-10-27 12:00:00 11.9 8 Noroeste 16 Noroeste 0 -- -- 63
2020-10-27 11:00:00 10.4 7 Norte 17 Noroeste 0 -- -- 66
2020-10-27 10:00:00 8.7 7 Noroeste 13 Noroeste 0 -- -- 75
2020-10-27 09:00:00 8.1 7 Noroeste 14 Noroeste 0 -- -- 77
2020-10-27 08:00:00 5.9 8 Oeste 15 Oeste 0 -- -- 85
2020-10-27 07:00:00 5.6 6 Oeste 12 Oeste 0 -- -- 89
2020-10-27 06:00:00 6 6 Oeste 12 Oeste 0 -- -- 87
2020-10-27 05:00:00 6.2 7 Oeste 11 Oeste 0 -- -- 90
2020-10-27 04:00:00 6.4 5 Oeste 13 Oeste 0 -- -- 88
2020-10-27 03:00:00 6.5 5 Oeste 11 Noroeste 0 -- -- 87
2020-10-27 02:00:00 6.7 5 Oeste 10 Oeste 0 -- -- 86
2020-10-27 01:00:00 7.3 7 Oeste 16 Oeste 0 -- -- 83
2020-10-27 00:00:00 7.5 6 Oeste 15 Noroeste 0 -- -- 82
2020-10-26 23:00:00 7.9 9 Noroeste 17 Noroeste 0 -- -- 81
2020-10-26 22:00:00 8.1 7 Noroeste 15 Noroeste 0 -- -- 80
2020-10-26 21:00:00 8.2 8 Noroeste 14 Oeste 0 -- -- 78
2020-10-26 20:00:00 8.7 8 Noroeste 15 Oeste 0 -- -- 74
2020-10-26 19:00:00 9.3 10 Noroeste 19 Noroeste 0 -- -- 72
2020-10-26 18:00:00 10.9 13 Noroeste 27 Noroeste 0 -- -- 64
2020-10-26 17:00:00 12 13 Noroeste 24 Noroeste 0 -- -- 62
2020-10-26 16:00:00 12.1 15 Noroeste 27 Noroeste 0 -- -- 60
2020-10-26 15:00:00 11.8 12 Norte 27 Noroeste 0 -- -- 61
2020-10-26 14:00:00 11.7 11 Noroeste 29 Noroeste 0 -- -- 64
2020-10-26 13:00:00 10.9 15 Noroeste 32 Noroeste 0 -- -- 62
2020-10-26 12:00:00 10 13 Noroeste 27 Noroeste 0 -- -- 75
2020-10-26 11:00:00 8.8 16 Noroeste 31 Noroeste 0 -- -- 81
2020-10-26 10:00:00 7.9 15 Noroeste 31 Noroeste 0 -- -- 95
2020-10-26 09:00:00 6.9 14 Noroeste 27 Noroeste 0 -- -- 98
2020-10-26 08:00:00 6.3 13 Oeste 28 Noroeste 0 -- -- 98
2020-10-26 07:00:00 6.5 13 Noroeste 25 Noroeste 0 -- -- 97
2020-10-26 06:00:00 7.2 13 Noroeste 36 Oeste 0 -- -- 96
2020-10-26 05:00:00 7.8 14 Noroeste 26 Noroeste 0 -- -- 97
2020-10-26 04:00:00 7.7 14 Noroeste 32 Oeste 0 -- -- 96
2020-10-26 03:00:00 7.8 13 Noroeste 35 Noroeste 0 -- -- 95
2020-10-26 02:00:00 8.3 16 Noroeste 32 Oeste 0 -- -- 94
2020-10-26 01:00:00 9.2 13 Noroeste 39 Noroeste 0 -- -- 96
2020-10-26 00:00:00 10 18 Noroeste 42 Noroeste 0.2 -- -- 96